sensor_id;sensor_type;location;lat;lon;timestamp;temperature;humidity
80132;SHT30;69442;51.442;10.564;2023-07-31T00:01:31;19.26;56.63
80132;SHT30;69442;51.442;10.564;2023-07-31T00:03:57;19.25;56.88
80132;SHT30;69442;51.442;10.564;2023-07-31T00:06:23;19.25;56.96
80132;SHT30;69442;51.442;10.564;2023-07-31T00:08:48;19.22;57.39
80132;SHT30;69442;51.442;10.564;2023-07-31T00:11:13;19.16;57.37
80132;SHT30;69442;51.442;10.564;2023-07-31T00:13:39;19.15;57.35
80132;SHT30;69442;51.442;10.564;2023-07-31T00:16:04;19.14;57.39
80132;SHT30;69442;51.442;10.564;2023-07-31T00:18:29;19.12;57.62
80132;SHT30;69442;51.442;10.564;2023-07-31T00:20:55;19.08;57.67
80132;SHT30;69442;51.442;10.564;2023-07-31T00:23:20;19.07;57.94
80132;SHT30;69442;51.442;10.564;2023-07-31T00:25:45;19.04;58.10
80132;SHT30;69442;51.442;10.564;2023-07-31T00:28:11;19.01;58.05
80132;SHT30;69442;51.442;10.564;2023-07-31T00:30:36;18.98;58.22
80132;SHT30;69442;51.442;10.564;2023-07-31T00:33:01;18.92;58.37
80132;SHT30;69442;51.442;10.564;2023-07-31T00:35:27;18.92;58.54
80132;SHT30;69442;51.442;10.564;2023-07-31T00:37:52;18.90;58.59
80132;SHT30;69442;51.442;10.564;2023-07-31T00:40:17;18.90;58.44
80132;SHT30;69442;51.442;10.564;2023-07-31T00:42:43;18.85;58.65
80132;SHT30;69442;51.442;10.564;2023-07-31T00:45:09;18.85;58.93
80132;SHT30;69442;51.442;10.564;2023-07-31T00:47:34;18.80;58.88
80132;SHT30;69442;51.442;10.564;2023-07-31T00:49:59;18.78;59.03
80132;SHT30;69442;51.442;10.564;2023-07-31T00:52:25;18.77;59.08
80132;SHT30;69442;51.442;10.564;2023-07-31T00:54:50;18.75;59.12
80132;SHT30;69442;51.442;10.564;2023-07-31T00:57:16;18.74;59.22
80132;SHT30;69442;51.442;10.564;2023-07-31T00:59:41;18.71;59.39
80132;SHT30;69442;51.442;10.564;2023-07-31T01:02:06;18.70;59.37
80132;SHT30;69442;51.442;10.564;2023-07-31T01:04:32;18.67;59.45
80132;SHT30;69442;51.442;10.564;2023-07-31T01:07:11;18.64;59.82
80132;SHT30;69442;51.442;10.564;2023-07-31T01:09:47;18.61;59.77
80132;SHT30;69442;51.442;10.564;2023-07-31T01:12:15;18.59;59.75
80132;SHT30;69442;51.442;10.564;2023-07-31T01:14:51;18.59;59.94
80132;SHT30;69442;51.442;10.564;2023-07-31T01:17:16;18.55;60.09
80132;SHT30;69442;51.442;10.564;2023-07-31T01:19:42;18.55;60.06
80132;SHT30;69442;51.442;10.564;2023-07-31T01:28:20;18.47;60.10
80132;SHT30;69442;51.442;10.564;2023-07-31T01:30:49;18.45;60.25
80132;SHT30;69442;51.442;10.564;2023-07-31T01:33:17;18.45;60.41
80132;SHT30;69442;51.442;10.564;2023-07-31T01:35:45;18.43;60.48
80132;SHT30;69442;51.442;10.564;2023-07-31T01:38:11;18.39;60.65
80132;SHT30;69442;51.442;10.564;2023-07-31T01:40:37;18.33;60.65
80132;SHT30;69442;51.442;10.564;2023-07-31T01:43:02;18.32;60.65
80132;SHT30;69442;51.442;10.564;2023-07-31T01:45:28;18.31;60.76
80132;SHT30;69442;51.442;10.564;2023-07-31T01:47:53;18.29;60.81
80132;SHT30;69442;51.442;10.564;2023-07-31T01:50:18;18.28;60.84
80132;SHT30;69442;51.442;10.564;2023-07-31T01:52:44;18.28;60.94
80132;SHT30;69442;51.442;10.564;2023-07-31T01:55:09;18.25;60.87
80132;SHT30;69442;51.442;10.564;2023-07-31T01:57:36;18.21;61.00
80132;SHT30;69442;51.442;10.564;2023-07-31T02:00:02;18.18;61.13
80132;SHT30;69442;51.442;10.564;2023-07-31T02:02:27;18.18;61.30
80132;SHT30;69442;51.442;10.564;2023-07-31T02:04:53;18.16;61.35
80132;SHT30;69442;51.442;10.564;2023-07-31T02:07:18;18.12;61.35
80132;SHT30;69442;51.442;10.564;2023-07-31T02:09:43;18.12;61.30
80132;SHT30;69442;51.442;10.564;2023-07-31T02:12:09;18.09;61.24
80132;SHT30;69442;51.442;10.564;2023-07-31T02:14:34;18.09;61.32
80132;SHT30;69442;51.442;10.564;2023-07-31T02:17:00;18.08;61.38
80132;SHT30;69442;51.442;10.564;2023-07-31T02:19:25;18.05;61.42
80132;SHT30;69442;51.442;10.564;2023-07-31T02:21:50;18.06;61.48
80132;SHT30;69442;51.442;10.564;2023-07-31T02:24:16;18.01;61.52
80132;SHT30;69442;51.442;10.564;2023-07-31T02:26:41;18.02;61.62
80132;SHT30;69442;51.442;10.564;2023-07-31T02:29:08;18.01;61.72
80132;SHT30;69442;51.442;10.564;2023-07-31T02:31:33;17.98;61.75
80132;SHT30;69442;51.442;10.564;2023-07-31T02:33:59;18.00;61.61
80132;SHT30;69442;51.442;10.564;2023-07-31T02:36:24;17.95;61.67
80132;SHT30;69442;51.442;10.564;2023-07-31T02:38:49;17.95;61.73
80132;SHT30;69442;51.442;10.564;2023-07-31T02:41:15;17.95;61.84
80132;SHT30;69442;51.442;10.564;2023-07-31T02:43:40;17.94;61.87
80132;SHT30;69442;51.442;10.564;2023-07-31T02:46:05;17.90;61.94
80132;SHT30;69442;51.442;10.564;2023-07-31T02:48:31;17.90;61.95
80132;SHT30;69442;51.442;10.564;2023-07-31T02:50:57;17.88;61.98
80132;SHT30;69442;51.442;10.564;2023-07-31T02:53:22;17.88;62.11
80132;SHT30;69442;51.442;10.564;2023-07-31T02:55:48;17.86;62.07
80132;SHT30;69442;51.442;10.564;2023-07-31T02:58:13;17.84;62.18
80132;SHT30;69442;51.442;10.564;2023-07-31T03:00:45;17.83;62.32
80132;SHT30;69442;51.442;10.564;2023-07-31T03:03:10;17.80;62.43
80132;SHT30;69442;51.442;10.564;2023-07-31T03:05:36;17.80;62.34
80132;SHT30;69442;51.442;10.564;2023-07-31T03:08:01;17.78;62.35
80132;SHT30;69442;51.442;10.564;2023-07-31T03:10:27;17.77;62.38
80132;SHT30;69442;51.442;10.564;2023-07-31T03:12:52;17.77;62.44
80132;SHT30;69442;51.442;10.564;2023-07-31T03:15:17;17.77;62.50
80132;SHT30;69442;51.442;10.564;2023-07-31T03:17:43;17.76;62.66
80132;SHT30;69442;51.442;10.564;2023-07-31T03:20:09;17.70;62.74
80132;SHT30;69442;51.442;10.564;2023-07-31T03:22:34;17.73;63.05
80132;SHT30;69442;51.442;10.564;2023-07-31T03:25:01;17.70;63.15
80132;SHT30;69442;51.442;10.564;2023-07-31T03:27:26;17.67;63.20
80132;SHT30;69442;51.442;10.564;2023-07-31T03:29:52;17.69;63.19
80132;SHT30;69442;51.442;10.564;2023-07-31T03:32:17;17.66;63.38
80132;SHT30;69442;51.442;10.564;2023-07-31T03:34:42;17.65;63.37
80132;SHT30;69442;51.442;10.564;2023-07-31T03:37:08;17.62;63.31
80132;SHT30;69442;51.442;10.564;2023-07-31T03:39:35;17.62;63.46
80132;SHT30;69442;51.442;10.564;2023-07-31T03:42:00;17.63;63.48
80132;SHT30;69442;51.442;10.564;2023-07-31T03:44:25;17.60;63.56
80132;SHT30;69442;51.442;10.564;2023-07-31T03:46:51;17.60;63.62
80132;SHT30;69442;51.442;10.564;2023-07-31T03:49:16;17.56;63.62
80132;SHT30;69442;51.442;10.564;2023-07-31T03:51:42;17.56;63.64
80132;SHT30;69442;51.442;10.564;2023-07-31T03:54:07;17.52;63.68
80132;SHT30;69442;51.442;10.564;2023-07-31T03:56:33;17.54;63.81
80132;SHT30;69442;51.442;10.564;2023-07-31T03:58:59;17.50;63.99
80132;SHT30;69442;51.442;10.564;2023-07-31T04:01:26;17.53;63.94
80132;SHT30;69442;51.442;10.564;2023-07-31T04:03:51;17.50;64.01
80132;SHT30;69442;51.442;10.564;2023-07-31T04:06:17;17.49;64.07
80132;SHT30;69442;51.442;10.564;2023-07-31T04:08:44;17.45;63.99
80132;SHT30;69442;51.442;10.564;2023-07-31T04:11:10;17.45;63.96
80132;SHT30;69442;51.442;10.564;2023-07-31T04:13:36;17.46;64.03
80132;SHT30;69442;51.442;10.564;2023-07-31T04:16:01;17.45;63.94
80132;SHT30;69442;51.442;10.564;2023-07-31T04:18:27;17.43;63.86
80132;SHT30;69442;51.442;10.564;2023-07-31T04:20:52;17.42;64.00
80132;SHT30;69442;51.442;10.564;2023-07-31T04:23:18;17.40;64.03
80132;SHT30;69442;51.442;10.564;2023-07-31T04:25:43;17.42;64.09
80132;SHT30;69442;51.442;10.564;2023-07-31T04:28:09;17.39;64.13
80132;SHT30;69442;51.442;10.564;2023-07-31T04:30:34;17.38;64.19
80132;SHT30;69442;51.442;10.564;2023-07-31T04:32:59;17.39;64.33
80132;SHT30;69442;51.442;10.564;2023-07-31T04:35:25;17.36;64.32
80132;SHT30;69442;51.442;10.564;2023-07-31T04:37:50;17.38;64.48
80132;SHT30;69442;51.442;10.564;2023-07-31T04:40:16;17.33;64.63
80132;SHT30;69442;51.442;10.564;2023-07-31T04:42:41;17.32;64.61
80132;SHT30;69442;51.442;10.564;2023-07-31T04:45:08;17.33;64.85
80132;SHT30;69442;51.442;10.564;2023-07-31T04:47:34;17.33;64.80
80132;SHT30;69442;51.442;10.564;2023-07-31T04:49:59;17.32;64.79
80132;SHT30;69442;51.442;10.564;2023-07-31T04:52:24;17.32;64.86
80132;SHT30;69442;51.442;10.564;2023-07-31T04:54:50;17.32;65.01
80132;SHT30;69442;51.442;10.564;2023-07-31T04:57:15;17.31;65.13
80132;SHT30;69442;51.442;10.564;2023-07-31T04:59:40;17.29;65.17
80132;SHT30;69442;51.442;10.564;2023-07-31T05:02:08;17.32;65.24
80132;SHT30;69442;51.442;10.564;2023-07-31T05:04:33;17.31;65.35
80132;SHT30;69442;51.442;10.564;2023-07-31T05:06:59;17.29;65.37
80132;SHT30;69442;51.442;10.564;2023-07-31T05:09:24;17.31;65.54
80132;SHT30;69442;51.442;10.564;2023-07-31T05:11:50;17.29;65.64
80132;SHT30;69442;51.442;10.564;2023-07-31T05:14:15;17.31;65.63
80132;SHT30;69442;51.442;10.564;2023-07-31T05:16:41;17.36;65.54
80132;SHT30;69442;51.442;10.564;2023-07-31T05:19:06;17.31;65.73
80132;SHT30;69442;51.442;10.564;2023-07-31T05:21:32;17.35;65.65
80132;SHT30;69442;51.442;10.564;2023-07-31T05:23:57;17.38;65.60
80132;SHT30;69442;51.442;10.564;2023-07-31T05:26:22;17.38;65.69
80132;SHT30;69442;51.442;10.564;2023-07-31T05:28:48;17.39;65.67
80132;SHT30;69442;51.442;10.564;2023-07-31T05:31:14;17.40;65.65
80132;SHT30;69442;51.442;10.564;2023-07-31T05:33:39;17.42;65.73
80132;SHT30;69442;51.442;10.564;2023-07-31T05:36:05;17.45;66.01
80132;SHT30;69442;51.442;10.564;2023-07-31T05:38:30;17.46;65.85
80132;SHT30;69442;51.442;10.564;2023-07-31T05:40:55;17.50;65.81
80132;SHT30;69442;51.442;10.564;2023-07-31T05:43:21;17.50;65.94
80132;SHT30;69442;51.442;10.564;2023-07-31T05:45:47;17.49;65.83
80132;SHT30;69442;51.442;10.564;2023-07-31T05:48:12;17.54;65.91
80132;SHT30;69442;51.442;10.564;2023-07-31T05:50:38;17.56;65.78
80132;SHT30;69442;51.442;10.564;2023-07-31T05:53:05;17.59;65.58
80132;SHT30;69442;51.442;10.564;2023-07-31T05:55:30;17.65;65.25
80132;SHT30;69442;51.442;10.564;2023-07-31T05:57:56;17.67;65.31
80132;SHT30;69442;51.442;10.564;2023-07-31T06:00:21;17.70;65.23
80132;SHT30;69442;51.442;10.564;2023-07-31T06:02:48;17.74;65.24
80132;SHT30;69442;51.442;10.564;2023-07-31T06:05:13;17.76;65.35
80132;SHT30;69442;51.442;10.564;2023-07-31T06:07:39;17.81;65.19
80132;SHT30;69442;51.442;10.564;2023-07-31T06:10:05;17.83;64.96
80132;SHT30;69442;51.442;10.564;2023-07-31T06:12:35;17.87;64.93
80132;SHT30;69442;51.442;10.564;2023-07-31T06:15:01;17.88;64.62
80132;SHT30;69442;51.442;10.564;2023-07-31T06:17:27;17.93;64.45
80132;SHT30;69442;51.442;10.564;2023-07-31T06:19:52;17.97;64.33
80132;SHT30;69442;51.442;10.564;2023-07-31T06:22:18;18.02;64.18
80132;SHT30;69442;51.442;10.564;2023-07-31T06:24:44;18.05;63.98
80132;SHT30;69442;51.442;10.564;2023-07-31T06:27:10;18.06;63.97
80132;SHT30;69442;51.442;10.564;2023-07-31T06:29:35;18.11;63.65
80132;SHT30;69442;51.442;10.564;2023-07-31T06:32:01;18.12;63.67
80132;SHT30;69442;51.442;10.564;2023-07-31T06:34:26;18.15;63.69
80132;SHT30;69442;51.442;10.564;2023-07-31T06:36:51;18.16;63.43
80132;SHT30;69442;51.442;10.564;2023-07-31T06:39:17;18.19;63.46
80132;SHT30;69442;51.442;10.564;2023-07-31T06:41:43;18.26;63.31
80132;SHT30;69442;51.442;10.564;2023-07-31T06:44:09;18.26;63.14
80132;SHT30;69442;51.442;10.564;2023-07-31T06:46:35;18.32;62.91
80132;SHT30;69442;51.442;10.564;2023-07-31T06:49:00;18.36;62.81
80132;SHT30;69442;51.442;10.564;2023-07-31T06:51:25;18.45;62.57
80132;SHT30;69442;51.442;10.564;2023-07-31T06:53:51;18.49;62.28
80132;SHT30;69442;51.442;10.564;2023-07-31T06:56:16;18.57;62.07
80132;SHT30;69442;51.442;10.564;2023-07-31T06:58:42;18.61;61.83
80132;SHT30;69442;51.442;10.564;2023-07-31T07:01:08;18.67;61.66
80132;SHT30;69442;51.442;10.564;2023-07-31T07:03:33;18.71;61.56
80132;SHT30;69442;51.442;10.564;2023-07-31T07:05:59;18.77;61.31
80132;SHT30;69442;51.442;10.564;2023-07-31T07:08:24;18.81;61.30
80132;SHT30;69442;51.442;10.564;2023-07-31T07:10:50;18.85;61.13
80132;SHT30;69442;51.442;10.564;2023-07-31T07:13:15;18.92;61.09
80132;SHT30;69442;51.442;10.564;2023-07-31T07:15:43;18.97;60.98
80132;SHT30;69442;51.442;10.564;2023-07-31T07:18:09;19.02;60.86
80132;SHT30;69442;51.442;10.564;2023-07-31T07:20:35;19.05;60.70
80132;SHT30;69442;51.442;10.564;2023-07-31T07:23:01;19.08;60.59
80132;SHT30;69442;51.442;10.564;2023-07-31T07:25:26;19.15;60.60
80132;SHT30;69442;51.442;10.564;2023-07-31T07:27:52;19.20;60.44
80132;SHT30;69442;51.442;10.564;2023-07-31T07:30:18;19.25;60.56
80132;SHT30;69442;51.442;10.564;2023-07-31T07:32:44;19.28;60.38
80132;SHT30;69442;51.442;10.564;2023-07-31T07:35:10;19.30;60.44
80132;SHT30;69442;51.442;10.564;2023-07-31T07:37:35;19.29;60.34
80132;SHT30;69442;51.442;10.564;2023-07-31T07:40:01;19.30;60.43
80132;SHT30;69442;51.442;10.564;2023-07-31T07:42:26;19.33;60.54
80132;SHT30;69442;51.442;10.564;2023-07-31T07:44:51;19.32;60.71
80132;SHT30;69442;51.442;10.564;2023-07-31T07:47:17;19.33;60.61
80132;SHT30;69442;51.442;10.564;2023-07-31T07:49:42;19.33;60.85
80132;SHT30;69442;51.442;10.564;2023-07-31T07:52:07;19.36;60.92
80132;SHT30;69442;51.442;10.564;2023-07-31T07:54:33;19.33;60.87
80132;SHT30;69442;51.442;10.564;2023-07-31T07:56:59;19.30;60.94
80132;SHT30;69442;51.442;10.564;2023-07-31T07:59:24;19.33;61.57
80132;SHT30;69442;51.442;10.564;2023-07-31T08:01:50;19.33;61.34
80132;SHT30;69442;51.442;10.564;2023-07-31T08:04:15;19.30;61.18
80132;SHT30;69442;51.442;10.564;2023-07-31T08:06:40;19.32;61.43
80132;SHT30;69442;51.442;10.564;2023-07-31T08:09:06;19.30;61.79
80132;SHT30;69442;51.442;10.564;2023-07-31T08:11:34;19.29;61.79
80132;SHT30;69442;51.442;10.564;2023-07-31T08:13:59;19.29;61.88
80132;SHT30;69442;51.442;10.564;2023-07-31T08:16:25;19.28;62.37
80132;SHT30;69442;51.442;10.564;2023-07-31T08:18:50;19.28;62.69
80132;SHT30;69442;51.442;10.564;2023-07-31T08:21:16;19.22;62.67
80132;SHT30;69442;51.442;10.564;2023-07-31T08:23:41;19.22;62.84
80132;SHT30;69442;51.442;10.564;2023-07-31T08:26:06;19.20;62.79
80132;SHT30;69442;51.442;10.564;2023-07-31T08:28:32;19.19;62.27
80132;SHT30;69442;51.442;10.564;2023-07-31T08:30:57;19.23;62.22
80132;SHT30;69442;51.442;10.564;2023-07-31T08:33:23;19.26;62.38
80132;SHT30;69442;51.442;10.564;2023-07-31T08:35:48;19.29;62.28
80132;SHT30;69442;51.442;10.564;2023-07-31T08:38:14;19.33;61.98
80132;SHT30;69442;51.442;10.564;2023-07-31T08:40:39;19.39;61.87
80132;SHT30;69442;51.442;10.564;2023-07-31T08:43:05;19.43;61.55
80132;SHT30;69442;51.442;10.564;2023-07-31T08:45:32;19.49;61.61
80132;SHT30;69442;51.442;10.564;2023-07-31T08:47:58;19.53;61.77
80132;SHT30;69442;51.442;10.564;2023-07-31T08:50:24;19.59;61.48
80132;SHT30;69442;51.442;10.564;2023-07-31T08:52:51;19.63;61.42
80132;SHT30;69442;51.442;10.564;2023-07-31T08:55:16;19.70;61.48
80132;SHT30;69442;51.442;10.564;2023-07-31T08:57:42;19.74;61.32
80132;SHT30;69442;51.442;10.564;2023-07-31T09:00:09;19.80;61.34
80132;SHT30;69442;51.442;10.564;2023-07-31T09:02:48;19.85;61.53
80132;SHT30;69442;51.442;10.564;2023-07-31T09:05:14;19.91;60.80
80132;SHT30;69442;51.442;10.564;2023-07-31T09:07:42;19.97;60.83
80132;SHT30;69442;51.442;10.564;2023-07-31T09:10:11;19.99;60.54
80132;SHT30;69442;51.442;10.564;2023-07-31T09:12:37;20.04;60.41
80132;SHT30;69442;51.442;10.564;2023-07-31T09:15:04;20.11;60.67
80132;SHT30;69442;51.442;10.564;2023-07-31T09:17:35;20.12;60.54
80132;SHT30;69442;51.442;10.564;2023-07-31T09:20:18;20.18;60.68
80132;SHT30;69442;51.442;10.564;2023-07-31T09:22:45;20.21;60.32
80132;SHT30;69442;51.442;10.564;2023-07-31T09:25:28;20.24;60.92
80132;SHT30;69442;51.442;10.564;2023-07-31T09:28:01;20.25;60.27
80132;SHT30;69442;51.442;10.564;2023-07-31T09:30:27;20.28;60.35
80132;SHT30;69442;51.442;10.564;2023-07-31T09:33:03;20.35;60.53
80132;SHT30;69442;51.442;10.564;2023-07-31T09:35:32;20.39;60.38
80132;SHT30;69442;51.442;10.564;2023-07-31T09:38:06;20.40;60.17
80132;SHT30;69442;51.442;10.564;2023-07-31T09:40:33;20.44;60.03
80132;SHT30;69442;51.442;10.564;2023-07-31T09:43:04;20.49;60.29
80132;SHT30;69442;51.442;10.564;2023-07-31T09:45:33;20.52;60.26
80132;SHT30;69442;51.442;10.564;2023-07-31T09:47:59;20.50;60.11
80132;SHT30;69442;51.442;10.564;2023-07-31T09:50:24;20.53;60.61
80132;SHT30;69442;51.442;10.564;2023-07-31T09:52:51;20.53;60.64
80132;SHT30;69442;51.442;10.564;2023-07-31T09:55:17;20.56;60.52
80132;SHT30;69442;51.442;10.564;2023-07-31T09:57:46;20.54;60.45
80132;SHT30;69442;51.442;10.564;2023-07-31T10:00:13;20.60;60.23
80132;SHT30;69442;51.442;10.564;2023-07-31T10:02:39;20.64;60.27
80132;SHT30;69442;51.442;10.564;2023-07-31T10:05:06;20.64;60.31
80132;SHT30;69442;51.442;10.564;2023-07-31T10:07:37;20.70;60.38
80132;SHT30;69442;51.442;10.564;2023-07-31T10:10:07;20.73;60.19
80132;SHT30;69442;51.442;10.564;2023-07-31T10:12:34;20.76;60.27
80132;SHT30;69442;51.442;10.564;2023-07-31T10:15:01;20.76;60.19
80132;SHT30;69442;51.442;10.564;2023-07-31T10:17:26;20.81;60.00
80132;SHT30;69442;51.442;10.564;2023-07-31T10:19:53;20.84;60.15
80132;SHT30;69442;51.442;10.564;2023-07-31T10:22:20;20.91;59.89
80132;SHT30;69442;51.442;10.564;2023-07-31T10:24:46;20.96;59.93
80132;SHT30;69442;51.442;10.564;2023-07-31T10:27:13;20.98;59.89
80132;SHT30;69442;51.442;10.564;2023-07-31T10:29:40;21.01;59.83
80132;SHT30;69442;51.442;10.564;2023-07-31T10:32:11;21.02;60.12
80132;SHT30;69442;51.442;10.564;2023-07-31T10:34:38;21.08;59.71
80132;SHT30;69442;51.442;10.564;2023-07-31T10:37:38;21.11;59.94
80132;SHT30;69442;51.442;10.564;2023-07-31T10:40:05;21.08;59.60
80132;SHT30;69442;51.442;10.564;2023-07-31T10:42:36;21.09;59.68
80132;SHT30;69442;51.442;10.564;2023-07-31T10:45:03;21.12;59.60
80132;SHT30;69442;51.442;10.564;2023-07-31T10:47:29;21.11;59.51
80132;SHT30;69442;51.442;10.564;2023-07-31T10:50:17;21.08;60.06
80132;SHT30;69442;51.442;10.564;2023-07-31T10:52:46;21.09;59.95
80132;SHT30;69442;51.442;10.564;2023-07-31T10:55:23;21.05;59.97
80132;SHT30;69442;51.442;10.564;2023-07-31T10:57:49;21.05;59.97
80132;SHT30;69442;51.442;10.564;2023-07-31T11:00:27;21.11;59.95
80132;SHT30;69442;51.442;10.564;2023-07-31T11:05:46;21.21;59.86
80132;SHT30;69442;51.442;10.564;2023-07-31T11:10:38;21.42;59.38
80132;SHT30;69442;51.442;10.564;2023-07-31T11:13:06;21.56;59.12
80132;SHT30;69442;51.442;10.564;2023-07-31T11:15:31;21.66;59.04
80132;SHT30;69442;51.442;10.564;2023-07-31T11:17:57;21.80;58.96
80132;SHT30;69442;51.442;10.564;2023-07-31T11:20:25;21.92;58.64
80132;SHT30;69442;51.442;10.564;2023-07-31T11:22:50;22.02;58.45
80132;SHT30;69442;51.442;10.564;2023-07-31T11:25:16;22.11;58.38
80132;SHT30;69442;51.442;10.564;2023-07-31T11:27:43;22.18;58.26
80132;SHT30;69442;51.442;10.564;2023-07-31T11:30:09;22.28;58.27
80132;SHT30;69442;51.442;10.564;2023-07-31T11:32:38;22.36;58.32
80132;SHT30;69442;51.442;10.564;2023-07-31T11:35:04;22.42;58.16
80132;SHT30;69442;51.442;10.564;2023-07-31T11:37:41;22.47;58.32
80132;SHT30;69442;51.442;10.564;2023-07-31T11:40:07;22.49;58.16
80132;SHT30;69442;51.442;10.564;2023-07-31T11:42:34;22.56;58.13
80132;SHT30;69442;51.442;10.564;2023-07-31T11:45:02;22.59;57.99
80132;SHT30;69442;51.442;10.564;2023-07-31T11:47:28;22.64;57.86
80132;SHT30;69442;51.442;10.564;2023-07-31T11:49:53;22.67;57.84
80132;SHT30;69442;51.442;10.564;2023-07-31T11:52:18;22.68;57.85
80132;SHT30;69442;51.442;10.564;2023-07-31T11:54:48;22.74;57.71
80132;SHT30;69442;51.442;10.564;2023-07-31T11:57:15;22.78;57.78
80132;SHT30;69442;51.442;10.564;2023-07-31T11:59:41;22.81;57.68
80132;SHT30;69442;51.442;10.564;2023-07-31T12:02:07;22.86;57.58
80132;SHT30;69442;51.442;10.564;2023-07-31T12:04:32;22.87;57.36
80132;SHT30;69442;51.442;10.564;2023-07-31T12:07:00;22.91;57.42
80132;SHT30;69442;51.442;10.564;2023-07-31T12:09:26;22.92;57.47
80132;SHT30;69442;51.442;10.564;2023-07-31T12:11:53;22.92;57.43
80132;SHT30;69442;51.442;10.564;2023-07-31T12:14:25;22.91;57.33
80132;SHT30;69442;51.442;10.564;2023-07-31T12:16:55;22.91;57.37
80132;SHT30;69442;51.442;10.564;2023-07-31T12:19:21;22.91;57.44
80132;SHT30;69442;51.442;10.564;2023-07-31T12:21:47;22.91;57.32
80132;SHT30;69442;51.442;10.564;2023-07-31T12:24:12;22.91;57.28
80132;SHT30;69442;51.442;10.564;2023-07-31T12:26:37;22.92;57.18
80132;SHT30;69442;51.442;10.564;2023-07-31T12:29:07;22.91;57.18
80132;SHT30;69442;51.442;10.564;2023-07-31T12:31:34;22.94;57.20
80132;SHT30;69442;51.442;10.564;2023-07-31T12:33:59;22.94;57.13
80132;SHT30;69442;51.442;10.564;2023-07-31T12:36:26;22.91;57.11
80132;SHT30;69442;51.442;10.564;2023-07-31T12:38:53;22.92;56.99
80132;SHT30;69442;51.442;10.564;2023-07-31T12:41:21;22.91;56.78
80132;SHT30;69442;51.442;10.564;2023-07-31T12:43:46;22.91;56.91
80132;SHT30;69442;51.442;10.564;2023-07-31T12:46:12;22.90;56.78
80132;SHT30;69442;51.442;10.564;2023-07-31T12:48:38;22.88;56.87
80132;SHT30;69442;51.442;10.564;2023-07-31T12:51:04;22.88;56.79
80132;SHT30;69442;51.442;10.564;2023-07-31T12:53:30;22.87;56.77
80132;SHT30;69442;51.442;10.564;2023-07-31T12:55:56;22.87;56.77
80132;SHT30;69442;51.442;10.564;2023-07-31T12:58:21;22.84;56.83
80132;SHT30;69442;51.442;10.564;2023-07-31T13:00:47;22.81;56.82
80132;SHT30;69442;51.442;10.564;2023-07-31T13:03:12;22.80;56.74
80132;SHT30;69442;51.442;10.564;2023-07-31T13:05:39;22.80;56.65
80132;SHT30;69442;51.442;10.564;2023-07-31T13:08:05;22.80;56.72
80132;SHT30;69442;51.442;10.564;2023-07-31T13:10:30;22.75;56.86
80132;SHT30;69442;51.442;10.564;2023-07-31T13:12:56;22.75;56.88
80132;SHT30;69442;51.442;10.564;2023-07-31T13:15:21;22.75;56.87
80132;SHT30;69442;51.442;10.564;2023-07-31T13:17:47;22.78;56.86
80132;SHT30;69442;51.442;10.564;2023-07-31T13:20:12;22.84;56.94
80132;SHT30;69442;51.442;10.564;2023-07-31T13:22:38;22.88;56.98
80132;SHT30;69442;51.442;10.564;2023-07-31T13:25:04;22.94;56.89
80132;SHT30;69442;51.442;10.564;2023-07-31T13:27:30;22.99;56.59
80132;SHT30;69442;51.442;10.564;2023-07-31T13:29:55;23.01;56.55
80132;SHT30;69442;51.442;10.564;2023-07-31T13:32:21;23.09;56.50
80132;SHT30;69442;51.442;10.564;2023-07-31T13:34:47;23.14;56.58
80132;SHT30;69442;51.442;10.564;2023-07-31T13:37:13;23.22;56.48
80132;SHT30;69442;51.442;10.564;2023-07-31T13:39:39;23.23;56.51
80132;SHT30;69442;51.442;10.564;2023-07-31T13:42:06;23.26;56.33
80132;SHT30;69442;51.442;10.564;2023-07-31T13:44:38;23.30;56.19
80132;SHT30;69442;51.442;10.564;2023-07-31T13:47:04;23.29;56.06
80132;SHT30;69442;51.442;10.564;2023-07-31T13:49:30;23.29;56.19
80132;SHT30;69442;51.442;10.564;2023-07-31T13:51:56;23.29;56.35
80132;SHT30;69442;51.442;10.564;2023-07-31T13:54:25;23.29;56.40
80132;SHT30;69442;51.442;10.564;2023-07-31T13:56:51;23.25;56.52
80132;SHT30;69442;51.442;10.564;2023-07-31T13:59:17;23.19;56.71
80132;SHT30;69442;51.442;10.564;2023-07-31T14:01:43;23.16;56.83
80132;SHT30;69442;51.442;10.564;2023-07-31T14:04:10;23.14;56.88
80132;SHT30;69442;51.442;10.564;2023-07-31T14:06:35;23.12;56.89
80132;SHT30;69442;51.442;10.564;2023-07-31T14:09:01;23.11;57.08
80132;SHT30;69442;51.442;10.564;2023-07-31T14:11:27;23.09;57.29
80132;SHT30;69442;51.442;10.564;2023-07-31T14:13:53;23.06;57.44
80132;SHT30;69442;51.442;10.564;2023-07-31T14:16:19;23.09;57.43
80132;SHT30;69442;51.442;10.564;2023-07-31T14:18:44;23.06;57.42
80132;SHT30;69442;51.442;10.564;2023-07-31T14:21:13;23.08;57.33
80132;SHT30;69442;51.442;10.564;2023-07-31T14:23:39;23.09;57.27
80132;SHT30;69442;51.442;10.564;2023-07-31T14:26:04;23.09;57.26
80132;SHT30;69442;51.442;10.564;2023-07-31T14:28:30;23.12;57.22
80132;SHT30;69442;51.442;10.564;2023-07-31T14:30:55;23.12;57.21
80132;SHT30;69442;51.442;10.564;2023-07-31T14:33:21;23.12;57.13
80132;SHT30;69442;51.442;10.564;2023-07-31T14:35:46;23.12;57.18
80132;SHT30;69442;51.442;10.564;2023-07-31T14:38:11;23.14;57.12
80132;SHT30;69442;51.442;10.564;2023-07-31T14:40:37;23.14;57.05
80132;SHT30;69442;51.442;10.564;2023-07-31T14:43:03;23.16;57.08
80132;SHT30;69442;51.442;10.564;2023-07-31T14:45:29;23.18;56.95
80132;SHT30;69442;51.442;10.564;2023-07-31T14:47:54;23.19;56.99
80132;SHT30;69442;51.442;10.564;2023-07-31T14:50:20;23.18;56.75
80132;SHT30;69442;51.442;10.564;2023-07-31T14:52:46;23.20;56.86
80132;SHT30;69442;51.442;10.564;2023-07-31T14:55:11;23.22;56.92
80132;SHT30;69442;51.442;10.564;2023-07-31T14:57:36;23.26;56.84
80132;SHT30;69442;51.442;10.564;2023-07-31T15:00:02;23.29;56.82
80132;SHT30;69442;51.442;10.564;2023-07-31T15:02:33;23.30;56.81
80132;SHT30;69442;51.442;10.564;2023-07-31T15:04:58;23.33;56.75
80132;SHT30;69442;51.442;10.564;2023-07-31T15:07:24;23.38;56.70
80132;SHT30;69442;51.442;10.564;2023-07-31T15:09:49;23.40;56.54
80132;SHT30;69442;51.442;10.564;2023-07-31T15:12:14;23.43;56.57
80132;SHT30;69442;51.442;10.564;2023-07-31T15:14:40;23.46;56.49
80132;SHT30;69442;51.442;10.564;2023-07-31T15:17:07;23.47;56.33
80132;SHT30;69442;51.442;10.564;2023-07-31T15:19:32;23.47;56.41
80132;SHT30;69442;51.442;10.564;2023-07-31T15:22:00;23.47;56.43